sensor_id;sensor_type;location;lat;lon;timestamp;temperature;humidity
21207;DHT22;10761;48.532;8.026;2023-05-15T00:01:57;11.10;99.90
21207;DHT22;10761;48.532;8.026;2023-05-15T00:04:23;11.10;99.90
21207;DHT22;10761;48.532;8.026;2023-05-15T00:06:49;11.20;99.90
21207;DHT22;10761;48.532;8.026;2023-05-15T00:09:15;11.20;99.90
21207;DHT22;10761;48.532;8.026;2023-05-15T00:11:41;11.20;99.90
21207;DHT22;10761;48.532;8.026;2023-05-15T00:14:07;11.20;99.90
21207;DHT22;10761;48.532;8.026;2023-05-15T00:16:32;11.20;99.90
21207;DHT22;10761;48.532;8.026;2023-05-15T00:18:58;11.30;99.90
21207;DHT22;10761;48.532;8.026;2023-05-15T00:21:23;11.20;99.90
21207;DHT22;10761;48.532;8.026;2023-05-15T00:23:49;11.10;99.90
21207;DHT22;10761;48.532;8.026;2023-05-15T00:26:18;11.10;99.90
21207;DHT22;10761;48.532;8.026;2023-05-15T00:28:44;11.00;99.90
21207;DHT22;10761;48.532;8.026;2023-05-15T00:31:09;11.00;99.90
21207;DHT22;10761;48.532;8.026;2023-05-15T00:33:37;10.90;99.90
21207;DHT22;10761;48.532;8.026;2023-05-15T00:36:03;10.90;99.90
21207;DHT22;10761;48.532;8.026;2023-05-15T00:38:29;10.90;99.90
21207;DHT22;10761;48.532;8.026;2023-05-15T00:40:57;10.90;99.90
21207;DHT22;10761;48.532;8.026;2023-05-15T00:43:25;10.80;99.90
21207;DHT22;10761;48.532;8.026;2023-05-15T00:45:52;10.80;99.90
21207;DHT22;10761;48.532;8.026;2023-05-15T00:48:18;10.80;99.90
21207;DHT22;10761;48.532;8.026;2023-05-15T00:50:50;10.80;99.90
21207;DHT22;10761;48.532;8.026;2023-05-15T00:53:16;10.80;99.90
21207;DHT22;10761;48.532;8.026;2023-05-15T00:55:45;10.70;99.90
21207;DHT22;10761;48.532;8.026;2023-05-15T00:58:13;10.70;99.90
21207;DHT22;10761;48.532;8.026;2023-05-15T01:00:39;10.80;99.90
21207;DHT22;10761;48.532;8.026;2023-05-15T01:03:05;10.80;99.90
21207;DHT22;10761;48.532;8.026;2023-05-15T01:05:31;10.80;99.90
21207;DHT22;10761;48.532;8.026;2023-05-15T01:08:13;10.80;99.90
21207;DHT22;10761;48.532;8.026;2023-05-15T01:10:42;10.80;99.90
21207;DHT22;10761;48.532;8.026;2023-05-15T01:13:08;10.80;99.90
21207;DHT22;10761;48.532;8.026;2023-05-15T01:15:34;10.80;99.90
21207;DHT22;10761;48.532;8.026;2023-05-15T01:18:00;10.70;99.90
21207;DHT22;10761;48.532;8.026;2023-05-15T01:20:26;10.70;99.90
21207;DHT22;10761;48.532;8.026;2023-05-15T01:23:23;10.60;99.90
21207;DHT22;10761;48.532;8.026;2023-05-15T01:28:52;10.50;99.90
21207;DHT22;10761;48.532;8.026;2023-05-15T01:31:23;10.40;99.90
21207;DHT22;10761;48.532;8.026;2023-05-15T01:33:55;10.40;99.90
21207;DHT22;10761;48.532;8.026;2023-05-15T01:36:35;10.40;99.90
21207;DHT22;10761;48.532;8.026;2023-05-15T01:39:02;10.40;99.90
21207;DHT22;10761;48.532;8.026;2023-05-15T01:44:06;10.30;99.90
21207;DHT22;10761;48.532;8.026;2023-05-15T01:46:35;10.40;99.90
21207;DHT22;10761;48.532;8.026;2023-05-15T01:49:02;10.40;99.90
21207;DHT22;10761;48.532;8.026;2023-05-15T01:51:29;10.40;99.90
21207;DHT22;10761;48.532;8.026;2023-05-15T01:53:57;10.40;99.90
21207;DHT22;10761;48.532;8.026;2023-05-15T01:56:25;10.40;99.90
21207;DHT22;10761;48.532;8.026;2023-05-15T01:58:51;10.40;99.90
21207;DHT22;10761;48.532;8.026;2023-05-15T02:01:18;10.30;99.90
21207;DHT22;10761;48.532;8.026;2023-05-15T02:03:44;10.30;99.90
21207;DHT22;10761;48.532;8.026;2023-05-15T02:06:11;10.30;99.90
21207;DHT22;10761;48.532;8.026;2023-05-15T02:08:38;10.30;99.90
21207;DHT22;10761;48.532;8.026;2023-05-15T02:11:05;10.30;99.90
21207;DHT22;10761;48.532;8.026;2023-05-15T02:13:32;10.40;99.90
21207;DHT22;10761;48.532;8.026;2023-05-15T02:15:58;10.40;99.90
21207;DHT22;10761;48.532;8.026;2023-05-15T02:18:24;10.30;99.90
21207;DHT22;10761;48.532;8.026;2023-05-15T02:20:50;10.30;99.90
21207;DHT22;10761;48.532;8.026;2023-05-15T02:23:15;10.40;99.90
21207;DHT22;10761;48.532;8.026;2023-05-15T02:25:44;10.40;99.90
21207;DHT22;10761;48.532;8.026;2023-05-15T02:28:22;10.40;99.90
21207;DHT22;10761;48.532;8.026;2023-05-15T02:30:55;10.40;99.90
21207;DHT22;10761;48.532;8.026;2023-05-15T02:33:38;10.40;99.90
21207;DHT22;10761;48.532;8.026;2023-05-15T02:36:07;10.40;99.90
21207;DHT22;10761;48.532;8.026;2023-05-15T02:38:47;10.40;99.90
21207;DHT22;10761;48.532;8.026;2023-05-15T02:41:14;10.40;99.90
21207;DHT22;10761;48.532;8.026;2023-05-15T02:43:41;10.40;99.90
21207;DHT22;10761;48.532;8.026;2023-05-15T02:46:08;10.50;99.90
21207;DHT22;10761;48.532;8.026;2023-05-15T02:48:37;10.50;99.90
21207;DHT22;10761;48.532;8.026;2023-05-15T02:51:04;10.50;99.90
21207;DHT22;10761;48.532;8.026;2023-05-15T02:53:32;10.50;99.90
21207;DHT22;10761;48.532;8.026;2023-05-15T02:55:58;10.50;99.90
21207;DHT22;10761;48.532;8.026;2023-05-15T02:58:23;10.50;99.90
21207;DHT22;10761;48.532;8.026;2023-05-15T03:00:49;10.60;99.90
21207;DHT22;10761;48.532;8.026;2023-05-15T03:03:14;10.70;99.90
21207;DHT22;10761;48.532;8.026;2023-05-15T03:05:40;10.70;99.90
21207;DHT22;10761;48.532;8.026;2023-05-15T03:08:06;10.70;99.90
21207;DHT22;10761;48.532;8.026;2023-05-15T03:10:31;10.70;99.90
21207;DHT22;10761;48.532;8.026;2023-05-15T03:12:57;10.70;99.90
21207;DHT22;10761;48.532;8.026;2023-05-15T03:15:23;10.70;99.90
21207;DHT22;10761;48.532;8.026;2023-05-15T03:17:48;10.70;99.90
21207;DHT22;10761;48.532;8.026;2023-05-15T03:20:14;10.70;99.90
21207;DHT22;10761;48.532;8.026;2023-05-15T03:22:40;10.70;99.90
21207;DHT22;10761;48.532;8.026;2023-05-15T03:25:10;10.70;99.90
21207;DHT22;10761;48.532;8.026;2023-05-15T03:27:36;10.70;99.90
21207;DHT22;10761;48.532;8.026;2023-05-15T03:30:03;10.70;99.90
21207;DHT22;10761;48.532;8.026;2023-05-15T03:32:29;10.70;99.90
21207;DHT22;10761;48.532;8.026;2023-05-15T03:34:54;10.70;99.90
21207;DHT22;10761;48.532;8.026;2023-05-15T03:37:20;10.70;99.90
21207;DHT22;10761;48.532;8.026;2023-05-15T03:39:45;10.80;99.90
21207;DHT22;10761;48.532;8.026;2023-05-15T03:42:11;10.80;99.90
21207;DHT22;10761;48.532;8.026;2023-05-15T03:44:37;10.70;99.90
21207;DHT22;10761;48.532;8.026;2023-05-15T03:47:03;10.80;99.90
21207;DHT22;10761;48.532;8.026;2023-05-15T03:49:28;10.80;99.90
21207;DHT22;10761;48.532;8.026;2023-05-15T03:51:55;10.80;99.90
21207;DHT22;10761;48.532;8.026;2023-05-15T03:54:21;10.80;99.90
21207;DHT22;10761;48.532;8.026;2023-05-15T03:56:47;10.70;99.90
21207;DHT22;10761;48.532;8.026;2023-05-15T03:59:13;10.70;99.90
21207;DHT22;10761;48.532;8.026;2023-05-15T04:01:38;10.70;99.90
21207;DHT22;10761;48.532;8.026;2023-05-15T04:04:04;10.70;99.90
21207;DHT22;10761;48.532;8.026;2023-05-15T04:06:30;10.70;99.90
21207;DHT22;10761;48.532;8.026;2023-05-15T04:08:55;10.70;99.90
21207;DHT22;10761;48.532;8.026;2023-05-15T04:11:21;10.70;99.90
21207;DHT22;10761;48.532;8.026;2023-05-15T04:13:48;10.70;99.90
21207;DHT22;10761;48.532;8.026;2023-05-15T04:16:13;10.70;99.90
21207;DHT22;10761;48.532;8.026;2023-05-15T04:18:39;10.70;99.90
21207;DHT22;10761;48.532;8.026;2023-05-15T04:21:05;10.80;99.90
21207;DHT22;10761;48.532;8.026;2023-05-15T04:23:30;10.80;99.90
21207;DHT22;10761;48.532;8.026;2023-05-15T04:25:56;10.80;99.90
21207;DHT22;10761;48.532;8.026;2023-05-15T04:28:21;10.90;99.90
21207;DHT22;10761;48.532;8.026;2023-05-15T04:30:47;10.90;99.90
21207;DHT22;10761;48.532;8.026;2023-05-15T04:33:13;11.00;99.90
21207;DHT22;10761;48.532;8.026;2023-05-15T04:35:38;11.00;99.90
21207;DHT22;10761;48.532;8.026;2023-05-15T04:38:04;11.10;99.90
21207;DHT22;10761;48.532;8.026;2023-05-15T04:40:30;11.20;99.90
21207;DHT22;10761;48.532;8.026;2023-05-15T04:42:56;11.20;99.90
21207;DHT22;10761;48.532;8.026;2023-05-15T04:45:21;11.10;99.90
21207;DHT22;10761;48.532;8.026;2023-05-15T04:47:49;11.20;99.90
21207;DHT22;10761;48.532;8.026;2023-05-15T04:50:14;11.20;99.90
21207;DHT22;10761;48.532;8.026;2023-05-15T04:52:40;11.20;99.90
21207;DHT22;10761;48.532;8.026;2023-05-15T04:55:08;11.30;99.90
21207;DHT22;10761;48.532;8.026;2023-05-15T04:57:33;11.30;99.90
21207;DHT22;10761;48.532;8.026;2023-05-15T05:00:00;11.30;99.90
21207;DHT22;10761;48.532;8.026;2023-05-15T05:02:25;11.40;99.90
21207;DHT22;10761;48.532;8.026;2023-05-15T05:04:51;11.40;99.90
21207;DHT22;10761;48.532;8.026;2023-05-15T05:07:17;11.50;99.90
21207;DHT22;10761;48.532;8.026;2023-05-15T05:09:42;11.50;99.90
21207;DHT22;10761;48.532;8.026;2023-05-15T05:12:09;11.60;99.90
21207;DHT22;10761;48.532;8.026;2023-05-15T05:14:35;11.70;99.90
21207;DHT22;10761;48.532;8.026;2023-05-15T05:17:01;11.70;99.90
21207;DHT22;10761;48.532;8.026;2023-05-15T05:19:27;11.80;99.90
21207;DHT22;10761;48.532;8.026;2023-05-15T05:21:53;11.90;99.90
21207;DHT22;10761;48.532;8.026;2023-05-15T05:24:19;12.00;99.90
21207;DHT22;10761;48.532;8.026;2023-05-15T05:26:45;12.10;99.90
21207;DHT22;10761;48.532;8.026;2023-05-15T05:29:11;12.10;99.90
21207;DHT22;10761;48.532;8.026;2023-05-15T05:31:36;12.20;99.90
21207;DHT22;10761;48.532;8.026;2023-05-15T05:34:02;12.30;99.90
21207;DHT22;10761;48.532;8.026;2023-05-15T05:36:28;12.40;99.90
21207;DHT22;10761;48.532;8.026;2023-05-15T05:38:54;12.60;99.90
21207;DHT22;10761;48.532;8.026;2023-05-15T05:41:19;12.60;99.90
21207;DHT22;10761;48.532;8.026;2023-05-15T05:43:46;12.70;99.90
21207;DHT22;10761;48.532;8.026;2023-05-15T05:46:11;12.80;99.90
21207;DHT22;10761;48.532;8.026;2023-05-15T05:48:37;12.90;99.90
21207;DHT22;10761;48.532;8.026;2023-05-15T05:51:03;13.10;99.90
21207;DHT22;10761;48.532;8.026;2023-05-15T05:53:28;13.10;99.90
21207;DHT22;10761;48.532;8.026;2023-05-15T05:55:54;13.20;99.90
21207;DHT22;10761;48.532;8.026;2023-05-15T05:58:20;13.30;99.90
21207;DHT22;10761;48.532;8.026;2023-05-15T06:00:45;13.30;1.00
21207;DHT22;10761;48.532;8.026;2023-05-15T06:03:11;13.20;1.00
21207;DHT22;10761;48.532;8.026;2023-05-15T06:05:38;13.10;1.00
21207;DHT22;10761;48.532;8.026;2023-05-15T06:08:04;13.10;1.00
21207;DHT22;10761;48.532;8.026;2023-05-15T06:10:30;13.10;1.00
21207;DHT22;10761;48.532;8.026;2023-05-15T06:12:56;13.00;1.00
21207;DHT22;10761;48.532;8.026;2023-05-15T06:15:22;13.00;1.00
21207;DHT22;10761;48.532;8.026;2023-05-15T06:17:47;13.10;35.70
21207;DHT22;10761;48.532;8.026;2023-05-15T06:20:14;13.10;16.60
21207;DHT22;10761;48.532;8.026;2023-05-15T06:22:40;13.20;11.90
21207;DHT22;10761;48.532;8.026;2023-05-15T06:25:06;13.40;1.00
21207;DHT22;10761;48.532;8.026;2023-05-15T06:27:33;13.40;1.00
21207;DHT22;10761;48.532;8.026;2023-05-15T06:29:59;13.50;1.00
21207;DHT22;10761;48.532;8.026;2023-05-15T06:32:25;13.60;1.00
21207;DHT22;10761;48.532;8.026;2023-05-15T06:34:50;13.70;1.00
21207;DHT22;10761;48.532;8.026;2023-05-15T06:37:16;14.10;1.00
21207;DHT22;10761;48.532;8.026;2023-05-15T06:39:42;14.20;1.00
21207;DHT22;10761;48.532;8.026;2023-05-15T06:42:07;14.40;1.00
21207;DHT22;10761;48.532;8.026;2023-05-15T06:44:33;14.30;1.00
21207;DHT22;10761;48.532;8.026;2023-05-15T06:46:59;14.30;99.90
21207;DHT22;10761;48.532;8.026;2023-05-15T06:49:24;14.30;1.00
21207;DHT22;10761;48.532;8.026;2023-05-15T06:51:50;14.50;99.90
21207;DHT22;10761;48.532;8.026;2023-05-15T06:54:16;14.50;99.90
21207;DHT22;10761;48.532;8.026;2023-05-15T06:56:42;14.90;99.90
21207;DHT22;10761;48.532;8.026;2023-05-15T06:59:08;15.10;1.00
21207;DHT22;10761;48.532;8.026;2023-05-15T07:01:33;15.40;1.00
21207;DHT22;10761;48.532;8.026;2023-05-15T07:03:59;15.70;40.90
21207;DHT22;10761;48.532;8.026;2023-05-15T07:06:24;15.40;1.00
21207;DHT22;10761;48.532;8.026;2023-05-15T07:08:50;15.30;99.90
21207;DHT22;10761;48.532;8.026;2023-05-15T07:11:16;15.10;99.90
21207;DHT22;10761;48.532;8.026;2023-05-15T07:13:42;14.80;99.90
21207;DHT22;10761;48.532;8.026;2023-05-15T07:16:07;14.80;99.90
21207;DHT22;10761;48.532;8.026;2023-05-15T07:18:33;14.80;1.00
21207;DHT22;10761;48.532;8.026;2023-05-15T07:20:58;14.60;99.90
21207;DHT22;10761;48.532;8.026;2023-05-15T07:23:24;14.70;99.90
21207;DHT22;10761;48.532;8.026;2023-05-15T07:25:52;14.90;99.90
21207;DHT22;10761;48.532;8.026;2023-05-15T07:28:18;15.50;99.90
21207;DHT22;10761;48.532;8.026;2023-05-15T07:30:43;16.00;99.90
21207;DHT22;10761;48.532;8.026;2023-05-15T07:33:09;16.80;1.00
21207;DHT22;10761;48.532;8.026;2023-05-15T07:35:35;17.60;99.90
21207;DHT22;10761;48.532;8.026;2023-05-15T07:38:00;18.00;99.90
21207;DHT22;10761;48.532;8.026;2023-05-15T07:40:26;17.80;1.00
21207;DHT22;10761;48.532;8.026;2023-05-15T07:42:52;17.70;1.00
21207;DHT22;10761;48.532;8.026;2023-05-15T07:45:17;17.60;1.00
21207;DHT22;10761;48.532;8.026;2023-05-15T07:47:47;17.00;1.00
21207;DHT22;10761;48.532;8.026;2023-05-15T07:50:14;16.60;99.90
21207;DHT22;10761;48.532;8.026;2023-05-15T07:52:40;16.60;99.90
21207;DHT22;10761;48.532;8.026;2023-05-15T07:55:06;17.00;99.90
21207;DHT22;10761;48.532;8.026;2023-05-15T07:57:32;17.30;99.90
21207;DHT22;10761;48.532;8.026;2023-05-15T07:59:58;17.30;1.00
21207;DHT22;10761;48.532;8.026;2023-05-15T08:02:23;17.00;1.00
21207;DHT22;10761;48.532;8.026;2023-05-15T08:04:49;16.60;99.90
21207;DHT22;10761;48.532;8.026;2023-05-15T08:07:15;16.60;1.00
21207;DHT22;10761;48.532;8.026;2023-05-15T08:09:40;16.90;1.00
21207;DHT22;10761;48.532;8.026;2023-05-15T08:12:20;16.70;1.00
21207;DHT22;10761;48.532;8.026;2023-05-15T08:14:50;16.80;1.00
21207;DHT22;10761;48.532;8.026;2023-05-15T08:17:16;16.40;1.00
21207;DHT22;10761;48.532;8.026;2023-05-15T08:19:42;16.40;1.00
21207;DHT22;10761;48.532;8.026;2023-05-15T08:22:08;16.40;1.00
21207;DHT22;10761;48.532;8.026;2023-05-15T08:24:33;16.30;1.00
21207;DHT22;10761;48.532;8.026;2023-05-15T08:26:59;16.60;1.00
21207;DHT22;10761;48.532;8.026;2023-05-15T08:29:25;17.10;1.00
21207;DHT22;10761;48.532;8.026;2023-05-15T08:31:51;17.30;1.00
21207;DHT22;10761;48.532;8.026;2023-05-15T08:34:17;17.60;9.60
21207;DHT22;10761;48.532;8.026;2023-05-15T08:36:43;17.30;1.00
21207;DHT22;10761;48.532;8.026;2023-05-15T08:39:09;17.10;99.90
21207;DHT22;10761;48.532;8.026;2023-05-15T08:41:50;16.90;99.90
21207;DHT22;10761;48.532;8.026;2023-05-15T08:44:17;17.10;1.00
21207;DHT22;10761;48.532;8.026;2023-05-15T08:46:44;16.80;99.90
21207;DHT22;10761;48.532;8.026;2023-05-15T08:49:18;16.80;99.90
21207;DHT22;10761;48.532;8.026;2023-05-15T08:51:44;17.00;99.90
21207;DHT22;10761;48.532;8.026;2023-05-15T08:54:10;17.50;99.90
21207;DHT22;10761;48.532;8.026;2023-05-15T08:56:36;17.80;99.90
21207;DHT22;10761;48.532;8.026;2023-05-15T08:59:03;17.80;1.00
21207;DHT22;10761;48.532;8.026;2023-05-15T09:01:29;17.90;1.00
21207;DHT22;10761;48.532;8.026;2023-05-15T09:03:55;18.10;1.00
21207;DHT22;10761;48.532;8.026;2023-05-15T09:06:21;18.30;1.00
21207;DHT22;10761;48.532;8.026;2023-05-15T09:08:47;18.10;1.00
21207;DHT22;10761;48.532;8.026;2023-05-15T09:11:14;18.10;1.00
21207;DHT22;10761;48.532;8.026;2023-05-15T09:13:40;18.80;1.00
21207;DHT22;10761;48.532;8.026;2023-05-15T09:16:06;19.20;1.00
21207;DHT22;10761;48.532;8.026;2023-05-15T09:18:32;19.60;1.00
21207;DHT22;10761;48.532;8.026;2023-05-15T09:23:47;19.30;99.90
21207;DHT22;10761;48.532;8.026;2023-05-15T09:26:13;19.20;99.90
21207;DHT22;10761;48.532;8.026;2023-05-15T09:28:38;19.10;99.90
21207;DHT22;10761;48.532;8.026;2023-05-15T09:31:04;19.50;99.90
21207;DHT22;10761;48.532;8.026;2023-05-15T09:33:32;20.10;99.90
21207;DHT22;10761;48.532;8.026;2023-05-15T09:35:57;20.30;99.90
21207;DHT22;10761;48.532;8.026;2023-05-15T09:38:24;20.50;1.00
21207;DHT22;10761;48.532;8.026;2023-05-15T09:40:50;20.50;1.00
21207;DHT22;10761;48.532;8.026;2023-05-15T09:43:27;20.50;1.00
21207;DHT22;10761;48.532;8.026;2023-05-15T09:45:54;20.10;1.00
21207;DHT22;10761;48.532;8.026;2023-05-15T09:48:20;20.30;1.00
21207;DHT22;10761;48.532;8.026;2023-05-15T09:50:46;20.10;1.00
21207;DHT22;10761;48.532;8.026;2023-05-15T09:53:12;19.60;1.00
21207;DHT22;10761;48.532;8.026;2023-05-15T09:55:40;19.70;1.00
21207;DHT22;10761;48.532;8.026;2023-05-15T09:58:11;20.10;1.00
21207;DHT22;10761;48.532;8.026;2023-05-15T10:00:38;20.60;1.00
21207;DHT22;10761;48.532;8.026;2023-05-15T10:03:05;20.60;1.00
21207;DHT22;10761;48.532;8.026;2023-05-15T10:05:31;20.40;1.00
21207;DHT22;10761;48.532;8.026;2023-05-15T10:07:58;20.70;1.00
21207;DHT22;10761;48.532;8.026;2023-05-15T10:10:24;20.70;1.00
21207;DHT22;10761;48.532;8.026;2023-05-15T10:12:52;19.90;1.00
21207;DHT22;10761;48.532;8.026;2023-05-15T10:15:19;19.20;1.00
21207;DHT22;10761;48.532;8.026;2023-05-15T10:17:50;18.90;1.00
21207;DHT22;10761;48.532;8.026;2023-05-15T10:20:16;18.90;1.00
21207;DHT22;10761;48.532;8.026;2023-05-15T10:22:45;19.20;1.00
21207;DHT22;10761;48.532;8.026;2023-05-15T10:25:40;19.80;99.90
21207;DHT22;10761;48.532;8.026;2023-05-15T10:28:10;20.60;1.00
21207;DHT22;10761;48.532;8.026;2023-05-15T10:30:36;20.90;1.00
21207;DHT22;10761;48.532;8.026;2023-05-15T10:33:03;21.20;1.00
21207;DHT22;10761;48.532;8.026;2023-05-15T10:35:30;21.60;1.00
21207;DHT22;10761;48.532;8.026;2023-05-15T10:37:56;21.50;1.00
21207;DHT22;10761;48.532;8.026;2023-05-15T10:40:22;21.90;1.00
21207;DHT22;10761;48.532;8.026;2023-05-15T10:42:49;22.40;1.00
21207;DHT22;10761;48.532;8.026;2023-05-15T10:45:15;22.70;1.00
21207;DHT22;10761;48.532;8.026;2023-05-15T10:47:42;23.20;1.00
21207;DHT22;10761;48.532;8.026;2023-05-15T10:50:08;23.50;1.00
21207;DHT22;10761;48.532;8.026;2023-05-15T10:52:35;23.40;1.00
21207;DHT22;10761;48.532;8.026;2023-05-15T10:55:04;22.80;1.00
21207;DHT22;10761;48.532;8.026;2023-05-15T10:57:30;22.30;1.00
21207;DHT22;10761;48.532;8.026;2023-05-15T10:59:57;22.10;1.00
21207;DHT22;10761;48.532;8.026;2023-05-15T11:02:27;22.10;1.00
21207;DHT22;10761;48.532;8.026;2023-05-15T11:04:59;22.30;1.00
21207;DHT22;10761;48.532;8.026;2023-05-15T11:07:27;22.50;1.00
21207;DHT22;10761;48.532;8.026;2023-05-15T11:09:53;22.70;1.00
21207;DHT22;10761;48.532;8.026;2023-05-15T11:12:19;22.90;1.00
21207;DHT22;10761;48.532;8.026;2023-05-15T11:17:22;23.20;1.00
21207;DHT22;10761;48.532;8.026;2023-05-15T11:24:56;23.40;99.90
21207;DHT22;10761;48.532;8.026;2023-05-15T11:27:24;23.30;99.90
21207;DHT22;10761;48.532;8.026;2023-05-15T11:33:00;23.90;99.90
21207;DHT22;10761;48.532;8.026;2023-05-15T11:35:41;23.60;99.90
21207;DHT22;10761;48.532;8.026;2023-05-15T11:38:11;23.90;99.90
21207;DHT22;10761;48.532;8.026;2023-05-15T11:40:57;24.50;99.90
21207;DHT22;10761;48.532;8.026;2023-05-15T11:43:28;24.40;99.90
21207;DHT22;10761;48.532;8.026;2023-05-15T11:46:06;24.60;99.90
21207;DHT22;10761;48.532;8.026;2023-05-15T11:48:36;24.80;99.90
21207;DHT22;10761;48.532;8.026;2023-05-15T11:51:04;24.70;99.90
21207;DHT22;10761;48.532;8.026;2023-05-15T11:53:32;24.70;99.90
21207;DHT22;10761;48.532;8.026;2023-05-15T11:55:58;24.40;99.90
21207;DHT22;10761;48.532;8.026;2023-05-15T11:58:24;24.20;99.90
21207;DHT22;10761;48.532;8.026;2023-05-15T12:00:51;23.60;99.90
21207;DHT22;10761;48.532;8.026;2023-05-15T12:03:22;23.90;99.90
21207;DHT22;10761;48.532;8.026;2023-05-15T12:05:48;24.00;99.90
21207;DHT22;10761;48.532;8.026;2023-05-15T12:08:14;22.50;99.90
21207;DHT22;10761;48.532;8.026;2023-05-15T12:10:44;21.00;99.90
21207;DHT22;10761;48.532;8.026;2023-05-15T12:13:10;19.70;99.90
21207;DHT22;10761;48.532;8.026;2023-05-15T12:15:37;18.80;99.90
21207;DHT22;10761;48.532;8.026;2023-05-15T12:18:05;18.30;99.90
21207;DHT22;10761;48.532;8.026;2023-05-15T12:20:36;17.90;99.90
21207;DHT22;10761;48.532;8.026;2023-05-15T12:23:06;17.30;1.00
21207;DHT22;10761;48.532;8.026;2023-05-15T12:25:34;16.60;1.00
21207;DHT22;10761;48.532;8.026;2023-05-15T12:28:01;16.20;99.90
21207;DHT22;10761;48.532;8.026;2023-05-15T12:30:29;16.10;99.90
21207;DHT22;10761;48.532;8.026;2023-05-15T12:33:06;16.00;1.00
21207;DHT22;10761;48.532;8.026;2023-05-15T12:35:35;16.00;1.00
21207;DHT22;10761;48.532;8.026;2023-05-15T12:38:05;16.00;92.90
21207;DHT22;10761;48.532;8.026;2023-05-15T12:40:35;16.20;1.00
21207;DHT22;10761;48.532;8.026;2023-05-15T12:43:07;16.20;1.00
21207;DHT22;10761;48.532;8.026;2023-05-15T12:45:33;16.10;1.00
21207;DHT22;10761;48.532;8.026;2023-05-15T12:48:00;15.90;1.00
21207;DHT22;10761;48.532;8.026;2023-05-15T12:50:26;15.70;99.90
21207;DHT22;10761;48.532;8.026;2023-05-15T12:52:56;15.50;1.00
21207;DHT22;10761;48.532;8.026;2023-05-15T12:55:24;15.40;1.00
21207;DHT22;10761;48.532;8.026;2023-05-15T12:57:52;15.50;99.90
21207;DHT22;10761;48.532;8.026;2023-05-15T13:00:19;15.70;1.00
21207;DHT22;10761;48.532;8.026;2023-05-15T13:02:48;15.90;1.00
21207;DHT22;10761;48.532;8.026;2023-05-15T13:05:14;16.10;99.90
21207;DHT22;10761;48.532;8.026;2023-05-15T13:07:42;16.30;99.90
21207;DHT22;10761;48.532;8.026;2023-05-15T13:10:08;16.30;1.00
21207;DHT22;10761;48.532;8.026;2023-05-15T13:12:35;16.20;98.90
21207;DHT22;10761;48.532;8.026;2023-05-15T13:15:02;16.30;1.00
21207;DHT22;10761;48.532;8.026;2023-05-15T13:17:29;16.60;99.90
21207;DHT22;10761;48.532;8.026;2023-05-15T13:19:55;16.80;1.00
21207;DHT22;10761;48.532;8.026;2023-05-15T13:22:20;17.00;1.00
21207;DHT22;10761;48.532;8.026;2023-05-15T13:24:46;17.00;1.00
21207;DHT22;10761;48.532;8.026;2023-05-15T13:27:11;17.00;1.00
21207;DHT22;10761;48.532;8.026;2023-05-15T13:29:37;17.00;1.00
21207;DHT22;10761;48.532;8.026;2023-05-15T13:32:03;17.10;89.90
21207;DHT22;10761;48.532;8.026;2023-05-15T13:34:28;16.50;21.70
21207;DHT22;10761;48.532;8.026;2023-05-15T13:36:54;16.40;1.00
21207;DHT22;10761;48.532;8.026;2023-05-15T13:39:19;16.50;1.00
21207;DHT22;10761;48.532;8.026;2023-05-15T13:41:45;16.60;99.90
21207;DHT22;10761;48.532;8.026;2023-05-15T13:44:11;16.40;1.00
21207;DHT22;10761;48.532;8.026;2023-05-15T13:46:36;16.20;1.00
21207;DHT22;10761;48.532;8.026;2023-05-15T13:49:02;16.10;1.00
21207;DHT22;10761;48.532;8.026;2023-05-15T13:51:27;16.20;99.90
21207;DHT22;10761;48.532;8.026;2023-05-15T13:53:53;16.10;1.00
21207;DHT22;10761;48.532;8.026;2023-05-15T13:56:18;16.30;99.90
21207;DHT22;10761;48.532;8.026;2023-05-15T13:58:44;16.60;1.00
21207;DHT22;10761;48.532;8.026;2023-05-15T14:01:10;16.60;1.00
21207;DHT22;10761;48.532;8.026;2023-05-15T14:03:35;16.50;1.00
21207;DHT22;10761;48.532;8.026;2023-05-15T14:06:01;16.30;1.00
21207;DHT22;10761;48.532;8.026;2023-05-15T14:08:26;16.20;1.00
21207;DHT22;10761;48.532;8.026;2023-05-15T14:10:52;16.10;1.00
21207;DHT22;10761;48.532;8.026;2023-05-15T14:13:17;16.20;99.90
21207;DHT22;10761;48.532;8.026;2023-05-15T14:15:43;16.20;1.00
21207;DHT22;10761;48.532;8.026;2023-05-15T14:18:08;16.20;1.00
21207;DHT22;10761;48.532;8.026;2023-05-15T14:20:34;16.40;1.00
21207;DHT22;10761;48.532;8.026;2023-05-15T14:23:00;16.50;99.90
21207;DHT22;10761;48.532;8.026;2023-05-15T14:25:25;16.40;1.00
21207;DHT22;10761;48.532;8.026;2023-05-15T14:27:51;16.40;1.00
21207;DHT22;10761;48.532;8.026;2023-05-15T14:30:16;16.50;1.00
21207;DHT22;10761;48.532;8.026;2023-05-15T14:32:43;16.60;99.90
21207;DHT22;10761;48.532;8.026;2023-05-15T14:35:08;16.70;1.00
21207;DHT22;10761;48.532;8.026;2023-05-15T14:37:35;16.60;1.00
21207;DHT22;10761;48.532;8.026;2023-05-15T14:40:00;16.60;1.00
21207;DHT22;10761;48.532;8.026;2023-05-15T14:42:26;16.60;1.00
21207;DHT22;10761;48.532;8.026;2023-05-15T14:44:52;16.60;99.90
21207;DHT22;10761;48.532;8.026;2023-05-15T14:47:17;16.70;1.00
21207;DHT22;10761;48.532;8.026;2023-05-15T14:49:43;16.80;99.90
21207;DHT22;10761;48.532;8.026;2023-05-15T14:52:09;16.90;1.00
21207;DHT22;10761;48.532;8.026;2023-05-15T14:54:37;17.00;99.90
21207;DHT22;10761;48.532;8.026;2023-05-15T14:57:03;17.10;90.80
21207;DHT22;10761;48.532;8.026;2023-05-15T14:59:28;17.20;99.90
21207;DHT22;10761;48.532;8.026;2023-05-15T15:01:54;17.30;99.90
21207;DHT22;10761;48.532;8.026;2023-05-15T15:04:20;17.40;99.90
21207;DHT22;10761;48.532;8.026;2023-05-15T15:06:46;17.40;1.00
21207;DHT22;10761;48.532;8.026;2023-05-15T15:09:12;17.50;1.00
21207;DHT22;10761;48.532;8.026;2023-05-15T15:11:37;17.40;99.90
21207;DHT22;10761;48.532;8.026;2023-05-15T15:14:03;17.30;1.00
21207;DHT22;10761;48.532;8.026;2023-05-15T15:16:29;17.20;1.00
21207;DHT22;10761;48.532;8.026;2023-05-15T15:18:54;17.00;24.40
21207;DHT22;10761;48.532;8.026;2023-05-15T15:21:20;16.70;99.90
21207;DHT22;10761;48.532;8.026;2023-05-15T15:23:45;16.60;1.00
21207;DHT22;10761;48.532;8.026;2023-05-15T15:26:12;16.40;99.90
21207;DHT22;10761;48.532;8.026;2023-05-15T15:28:38;16.30;1.00
21207;DHT22;10761;48.532;8.026;2023-05-15T15:31:04;16.10;1.00
21207;DHT22;10761;48.532;8.026;2023-05-15T15:33:29;16.10;99.90
21207;DHT22;10761;48.532;8.026;2023-05-15T15:35:55;16.30;99.90
21207;DHT22;10761;48.532;8.026;2023-05-15T15:38:21;16.40;1.00
21207;DHT22;10761;48.532;8.026;2023-05-15T15:40:46;16.50;85.90
21207;DHT22;10761;48.532;8.026;2023-05-15T15:43:12;16.60;1.00
21207;DHT22;10761;48.532;8.026;2023-05-15T15:45:38;16.70;1.00
21207;DHT22;10761;48.532;8.026;2023-05-15T15:48:03;16.80;1.00
21207;DHT22;10761;48.532;8.026;2023-05-15T15:50:29;16.80;1.00
21207;DHT22;10761;48.532;8.026;2023-05-15T15:52:54;16.80;1.00
21207;DHT22;10761;48.532;8.026;2023-05-15T15:55:20;16.70;1.00